createdAt,value
2023-11-15T00:04:55.914Z,4.05
2023-11-15T00:09:58.601Z,3.92
2023-11-15T00:15:01.355Z,4.70
2023-11-15T00:20:05.431Z,4.07
2023-11-15T00:25:08.913Z,4.00
2023-11-15T00:30:12.796Z,4.18
2023-11-15T00:35:15.642Z,4.70
2023-11-15T00:40:19.378Z,5.03
2023-11-15T00:45:25.410Z,4.97
2023-11-15T00:50:28.255Z,3.35
2023-11-15T00:55:30.848Z,4.38
2023-11-15T01:00:40.996Z,5.80
2023-11-15T01:05:43.728Z,5.40
2023-11-15T01:10:47.095Z,5.85
2023-11-15T01:15:50.022Z,6.13
2023-11-15T01:20:53.016Z,5.88
2023-11-15T01:25:56.905Z,3.88
2023-11-15T01:30:59.616Z,6.35
2023-11-15T01:36:02.241Z,6.57
2023-11-15T01:41:07.899Z,6.20
2023-11-15T01:46:10.839Z,6.18
2023-11-15T01:51:13.494Z,7.75
2023-11-15T01:56:16.154Z,5.57
2023-11-15T02:01:19.033Z,7.70
2023-11-15T02:06:22.579Z,8.93
2023-11-15T02:11:28.953Z,6.10
2023-11-15T02:16:31.815Z,7.25
2023-11-15T02:21:34.530Z,6.18
2023-11-15T02:26:37.126Z,8.32
2023-11-15T02:31:40.109Z,5.90
2023-11-15T02:36:43.481Z,7.38
2023-11-15T02:41:46.555Z,6.00
2023-11-15T02:46:49.179Z,9.27
2023-11-15T02:51:51.771Z,6.25
2023-11-15T02:56:54.411Z,4.60
2023-11-15T03:01:57.054Z,5.60
2023-11-15T03:06:59.668Z,4.72
2023-11-15T03:12:02.521Z,6.05
2023-11-15T03:17:14.468Z,5.95
2023-11-15T03:27:20.928Z,5.22
2023-11-15T03:32:24.449Z,5.40
2023-11-15T03:37:27.956Z,5.45
2023-11-15T03:42:30.648Z,6.03
2023-11-15T03:47:34.469Z,5.32
2023-11-15T03:52:37.343Z,4.22
2023-11-15T03:57:40.029Z,5.15
2023-11-15T04:02:42.864Z,4.90
2023-11-15T04:07:45.908Z,7.25
2023-11-15T04:12:48.488Z,3.90
2023-11-15T04:17:51.235Z,5.18
2023-11-15T04:22:53.939Z,4.35
2023-11-15T04:27:57.035Z,5.10
2023-11-15T04:33:00.774Z,4.80
2023-11-15T04:38:06.861Z,3.40
2023-11-15T04:43:10.139Z,4.03
2023-11-15T04:48:12.834Z,4.18
2023-11-15T04:53:15.375Z,4.30
2023-11-15T04:58:18.030Z,3.35
2023-11-15T05:03:21.672Z,4.28
2023-11-15T05:08:24.375Z,3.60
2023-11-15T05:13:27.115Z,3.13
2023-11-15T05:18:29.735Z,4.10
2023-11-15T05:23:32.462Z,2.80
2023-11-15T05:28:35.687Z,3.33
2023-11-15T05:33:38.410Z,4.10
2023-11-15T05:38:42.298Z,3.45
2023-11-15T05:43:44.922Z,3.97
2023-11-15T05:48:48.094Z,4.72
2023-11-15T05:53:50.733Z,4.32
2023-11-15T05:58:53.392Z,3.08
2023-11-15T06:03:56.064Z,3.75
2023-11-15T06:08:58.643Z,2.85
2023-11-15T06:14:01.226Z,2.92
2023-11-15T06:19:03.944Z,3.72
2023-11-15T06:24:06.885Z,5.45
2023-11-15T06:29:09.633Z,4.47
2023-11-15T06:34:12.827Z,3.22
2023-11-15T06:39:15.924Z,3.13
2023-11-15T06:44:18.561Z,1.85
2023-11-15T06:49:21.164Z,2.33
2023-11-15T06:54:23.899Z,4.53
2023-11-15T06:59:27.437Z,2.67
2023-11-15T07:04:31.227Z,3.78
2023-11-15T07:09:35.017Z,3.33
2023-11-15T07:14:37.848Z,2.67
2023-11-15T07:19:40.673Z,3.13
2023-11-15T07:24:44.405Z,2.10
2023-11-15T07:29:48.276Z,2.88
2023-11-15T07:34:50.887Z,2.30
2023-11-15T07:39:53.889Z,2.95
2023-11-15T07:44:56.537Z,2.60
2023-11-15T07:50:00.409Z,2.70
2023-11-15T07:55:03.509Z,3.33
2023-11-15T08:00:11.137Z,3.47
2023-11-15T08:05:17.487Z,3.38
2023-11-15T08:10:20.440Z,2.85
2023-11-15T08:15:23.171Z,3.53
2023-11-15T08:20:26.386Z,3.33
2023-11-15T08:25:29.343Z,2.75
2023-11-15T08:30:32.397Z,2.58
2023-11-15T08:35:35.051Z,3.03
2023-11-15T08:40:39.156Z,2.13
2023-11-15T08:45:42.971Z,3.80
2023-11-15T08:50:46.085Z,3.28
2023-11-15T08:55:50.450Z,2.60
2023-11-15T09:00:54.962Z,2.80
2023-11-15T09:05:57.736Z,3.60
2023-11-15T09:11:01.118Z,3.53
2023-11-15T09:16:04.296Z,3.30
2023-11-15T09:21:34.392Z,2.95
2023-11-15T09:26:39.358Z,2.90
2023-11-15T09:31:45.516Z,2.72
2023-11-15T09:36:51.534Z,2.92
2023-11-15T09:41:55.437Z,3.40
2023-11-15T09:46:59.879Z,3.20
2023-11-15T09:52:04.178Z,2.95
2023-11-15T09:57:07.877Z,3.70
2023-11-15T10:02:12.725Z,3.63
2023-11-15T10:07:27.341Z,4.05
2023-11-15T10:12:33.065Z,4.10
2023-11-15T10:17:44.518Z,3.83
2023-11-15T10:22:48.256Z,4.63
2023-11-15T10:27:52.770Z,4.13
2023-11-15T10:33:16.260Z,5.30
2023-11-15T10:38:24.070Z,3.78
2023-11-15T10:43:29.234Z,2.42
2023-11-15T10:48:35.406Z,2.67
2023-11-15T10:53:38.671Z,2.75
2023-11-15T10:58:43.201Z,3.13
2023-11-15T11:09:17.928Z,3.65
2023-11-15T11:14:29.574Z,3.33
2023-11-15T11:19:42.492Z,3.63
2023-11-15T11:24:57.477Z,3.03
2023-11-15T11:30:03.336Z,3.67
2023-11-15T11:35:15.149Z,3.90
2023-11-15T11:40:40.651Z,2.90
2023-11-15T11:45:58.029Z,2.75
2023-11-15T11:51:09.518Z,2.72
2023-11-15T11:56:15.307Z,3.92
2023-11-15T12:01:18.055Z,2.53
2023-11-15T12:06:21.073Z,4.05
2023-11-15T12:11:24.771Z,4.13
2023-11-15T12:16:28.998Z,3.15
2023-11-15T12:21:42.816Z,3.67
2023-11-15T12:26:49.394Z,4.97
2023-11-15T12:31:58.015Z,4.22
2023-11-15T12:37:01.472Z,4.30
2023-11-15T12:42:05.682Z,4.43
2023-11-15T12:47:09.081Z,4.47
2023-11-15T12:52:12.120Z,5.53
2023-11-15T12:57:15.756Z,5.00
2023-11-15T13:02:38.113Z,5.85
2023-11-15T13:07:47.178Z,6.20
2023-11-15T13:12:55.229Z,5.53
2023-11-15T13:18:01.094Z,5.10
2023-11-15T13:23:06.021Z,5.47
2023-11-15T13:28:12.821Z,6.93
2023-11-15T13:33:19.588Z,6.55
2023-11-15T13:38:27.747Z,6.07
2023-11-15T13:43:38.974Z,5.32
2023-11-15T13:48:42.025Z,4.90
2023-11-15T13:53:46.348Z,5.40
2023-11-15T13:58:51.813Z,5.82
2023-11-15T14:03:56.452Z,4.85
2023-11-15T14:09:00.791Z,5.68
2023-11-15T14:14:05.744Z,5.72
2023-11-15T14:19:11.375Z,5.35
2023-11-15T14:24:14.105Z,9.48
2023-11-15T14:29:17.341Z,4.70
2023-11-15T14:34:21.565Z,5.32
2023-11-15T14:39:27.098Z,5.28
2023-11-15T14:44:30.211Z,7.93
2023-11-15T14:49:32.937Z,4.30
2023-11-15T14:54:41.969Z,5.22
2023-11-15T14:59:45.726Z,3.92
2023-11-15T15:04:50.589Z,4.55
2023-11-15T15:09:54.703Z,4.15
2023-11-15T15:14:59.896Z,5.60
2023-11-15T15:20:04.158Z,4.50
2023-11-15T15:25:10.382Z,3.88
2023-11-15T15:30:18.108Z,5.50
2023-11-15T15:35:21.370Z,5.22
2023-11-15T15:40:28.164Z,4.18
2023-11-15T15:45:31.025Z,5.28
2023-11-15T15:50:34.458Z,7.57
2023-11-15T15:55:38.165Z,5.93
2023-11-15T16:00:42.120Z,6.28
2023-11-15T16:05:46.353Z,7.35
2023-11-15T16:10:51.514Z,6.53
2023-11-15T16:15:56.000Z,7.65
2023-11-15T16:21:02.238Z,7.20
2023-11-15T16:26:08.486Z,8.00
2023-11-15T16:31:12.339Z,8.57
2023-11-15T16:36:16.123Z,8.02
2023-11-15T16:41:19.591Z,8.35
2023-11-15T16:46:22.461Z,9.43
2023-11-15T16:51:25.386Z,9.52
2023-11-15T16:56:28.380Z,8.77
2023-11-15T17:01:33.536Z,9.80
2023-11-15T17:06:40.880Z,8.50
2023-11-15T17:11:43.626Z,7.85
2023-11-15T17:16:47.172Z,9.23
2023-11-15T17:21:52.828Z,7.95
2023-11-15T17:26:55.661Z,8.73
2023-11-15T17:32:03.716Z,8.30
2023-11-15T17:37:07.286Z,9.18
2023-11-15T17:42:11.541Z,6.80
2023-11-15T17:47:18.254Z,8.63
2023-11-15T17:52:21.289Z,7.68
2023-11-15T17:57:23.936Z,7.30
2023-11-15T18:02:26.919Z,6.18
2023-11-15T18:07:29.640Z,5.55
2023-11-15T18:12:36.528Z,6.95
2023-11-15T18:17:42.379Z,5.72
2023-11-15T18:22:48.634Z,5.60
2023-11-15T18:27:51.334Z,5.78
2023-11-15T18:32:56.444Z,5.07
2023-11-15T18:37:59.547Z,5.00
2023-11-15T18:43:02.449Z,4.30
2023-11-15T18:48:07.961Z,4.45
2023-11-15T18:53:10.866Z,4.75
2023-11-15T18:58:13.526Z,4.78
2023-11-15T19:03:16.553Z,3.38
2023-11-15T19:08:20.089Z,3.30
2023-11-15T19:13:29.305Z,3.38
2023-11-15T19:18:32.189Z,3.50
2023-11-15T19:23:36.143Z,3.20
2023-11-15T19:28:38.934Z,3.75
2023-11-15T19:33:42.719Z,2.80
2023-11-15T19:38:45.462Z,3.22
2023-11-15T19:43:50.721Z,3.45
2023-11-15T19:48:54.571Z,2.83
2023-11-15T19:53:57.559Z,3.42
2023-11-15T19:59:00.696Z,2.50
2023-11-15T20:04:05.416Z,2.90
2023-11-15T20:09:11.232Z,1.95
2023-11-15T20:14:13.855Z,2.33
2023-11-15T20:19:20.075Z,1.90
2023-11-15T20:24:22.863Z,1.67
2023-11-15T20:29:25.484Z,1.55
2023-11-15T20:34:28.073Z,1.00
2023-11-15T20:39:31.404Z,0.95
2023-11-15T20:44:34.064Z,1.80
2023-11-15T20:49:37.801Z,1.50
2023-11-15T20:54:41.107Z,1.30
2023-11-15T20:59:44.880Z,2.10
2023-11-15T21:04:48.064Z,1.50
2023-11-15T21:09:53.917Z,1.70
2023-11-15T21:14:56.663Z,2.58
2023-11-15T21:19:59.307Z,1.70
2023-11-15T21:25:01.862Z,1.20
2023-11-15T21:30:06.260Z,1.27
2023-11-15T21:35:10.912Z,1.38
2023-11-15T21:45:21.526Z,1.38
2023-11-15T21:50:24.400Z,1.50
2023-11-15T21:55:27.065Z,1.55
2023-11-15T22:00:30.457Z,1.10
2023-11-15T22:05:36.538Z,1.15
2023-11-15T22:10:39.235Z,1.10
2023-11-15T22:15:41.831Z,1.00
2023-11-15T22:20:44.751Z,1.48
2023-11-15T22:25:47.973Z,0.95
2023-11-15T22:30:50.924Z,0.93
2023-11-15T22:35:53.597Z,0.82
2023-11-15T22:40:56.255Z,1.05
2023-11-15T22:45:59.360Z,0.70
2023-11-15T22:51:02.058Z,0.93
2023-11-15T22:56:04.936Z,1.00
2023-11-15T23:01:07.534Z,0.90
2023-11-15T23:06:13.158Z,1.00
2023-11-15T23:11:16.577Z,0.85
2023-11-15T23:16:21.226Z,0.93
2023-11-15T23:21:24.037Z,1.02
2023-11-15T23:26:29.122Z,1.00
2023-11-15T23:31:35.815Z,1.13
2023-11-15T23:36:38.517Z,1.10
2023-11-15T23:41:41.180Z,0.90
2023-11-15T23:46:44.446Z,0.90
2023-11-15T23:51:47.078Z,0.90
2023-11-15T23:56:49.670Z,1.00
